• Join FlightAware (Why Join?)
  • Login
  • US Flag 
09:27AM EDT


 

Airport Tracker/Info


-or-


 

Live Flight TrackerFlight Track Log ✈ AAL2461 ✈ 20-Apr-2013 ✈ KDFW - KLAX

Flight Track Log - Related Links

Times and Time Zones

All times are in EDT time to prevent confusion due to time zone crossing. See the AAL2461 flight status page for this flight to view local times or setup timezone preferences in your user account.

Time Position Orientation Groundspeed Altitude Reporting Facility
EDT Latitude Longitude Course Direction KTS MPH feet Rate Location/Type
06:48PM 32.8833 -97.0500 293° West 158 182 1,800  Level Dallas / Fort Worth TRACON
06:49PM 32.8333 -97.0500 180° South 198 228 3,800 2,220 Climbing Dallas / Fort Worth TRACON
06:50PM 32.6913 -97.0761 248° West  Level FlightAware Approximate
06:50PM 32.7667 -97.0667 192° South 249 287 6,400  Level Dallas / Fort Worth TRACON
06:51PM 32.6833 -97.1984 270° West  Level FlightAware Approximate
06:52PM 32.7113 -97.3143 293° West  Level FlightAware Approximate
06:52PM 32.7683 -97.1961 271° West 304 350 10,600  Level Fort Worth Center
06:53PM 32.7527 -97.4283 293° West  Level FlightAware Approximate
06:53PM 32.7894 -97.3097 282° West 311 358 12,200  Level Fort Worth Center
06:54PM 32.8083 -97.4133 282° West 347 399 15,000 2,760 Climbing Fort Worth Center
06:55PM 32.8311 -97.5419 282° West 360 414 17,800 2,460 Climbing Fort Worth Center
06:56PM 32.8539 -97.6706 282° West 377 434 20,000 2,100 Climbing Fort Worth Center
06:57PM 32.8661 -97.7819 277° West 377 434 22,000 2,100 Climbing Fort Worth Center
06:58PM 32.8656 -97.9278 270° West 394 453 24,300 2,100 Climbing Fort Worth Center
06:59PM 32.8672 -98.0589 271° West 405 466 26,200 1,800 Climbing Fort Worth Center
07:00PM 32.8622 -98.1950 268° West 405 466 28,000 1,740 Climbing Fort Worth Center
07:01PM 32.8614 -98.3136 270° West 405 466 29,700 960 Climbing Fort Worth Center
07:02PM 32.8603 -98.4472 269° West 405 466 30,000 120 Climbing Fort Worth Center
07:03PM 32.8572 -98.5733 268° West 398 458 30,000  Level Fort Worth Center
07:04PM 32.8558 -98.7069 269° West 403 464 30,000  Level Fort Worth Center
07:05PM 32.8525 -98.8378 268° West 403 464 30,000  Level Fort Worth Center
07:06PM 32.8508 -98.9689 269° West 403 464 30,000  Level Fort Worth Center
07:07PM 32.8492 -99.1025 269° West 403 464 30,000  Level Fort Worth Center
07:08PM 32.8453 -99.2333 268° West 403 464 30,000  Level Fort Worth Center
07:09PM 32.8431 -99.3667 269° West 403 464 30,000  Level Fort Worth Center
07:10PM 32.8411 -99.5003 269° West 403 464 30,000  Level Fort Worth Center
07:11PM 32.8514 -99.6317 275° West 403 464 30,000  Level Fort Worth Center
07:12PM 32.9014 -99.7517 296° West 398 458 30,000  Level Fort Worth Center
07:13PM 32.9469 -99.8742 294° West 403 464 30,000  Level Fort Worth Center
07:14PM 32.9906 -99.9942 293° West 403 464 30,000  Level Fort Worth Center
07:15PM 33.0381 -100.1169 295° West 403 464 30,000  Level Fort Worth Center
07:16PM 33.0833 -100.2372 294° West 397 457 30,000  Level Fort Worth Center
07:17PM 33.1306 -100.3578 295° West 397 457 30,000  Level Fort Worth Center
07:18PM 33.1758 -100.4786 294° West 397 457 30,000  Level Fort Worth Center
07:19PM 33.2228 -100.6044 294° West 402 463 30,000  Level Fort Worth Center
07:20PM 33.2675 -100.7278 293° West 402 463 30,000  Level Fort Worth Center
07:21PM 33.3142 -100.8511 294° West 402 463 30,000  Level Fort Worth Center
07:22PM 33.3589 -100.9697 294° West 402 463 30,000  Level Fort Worth Center
07:23PM 33.4056 -101.0886 295° West 402 463 30,000  Level Fort Worth Center
07:24PM 33.4558 -101.2253 294° West 402 463 30,000  Level Fort Worth Center
07:25PM 33.4919 -101.3339 292° West 402 463 30,000  Level Fort Worth Center
07:26PM 33.5442 -101.4683 295° West 402 463 30,000  Level Fort Worth Center
07:27PM 33.5844 -101.5772 294° West 402 463 30,000  Level Fort Worth Center
07:28PM 33.6303 -101.7042 293° West 408 470 30,000  Level Fort Worth Center
07:29PM 33.6781 -101.8289 295° West 408 470 30,000  Level Fort Worth Center
07:30PM 33.7342 -101.9492 299° West 408 470 30,000  Level Fort Worth Center
07:31PM 33.8264 -102.0539 317° Northwest 413 475 30,000  Level Fort Worth Center
07:32PM 33.9103 -102.1508 316° Northwest 420 483 30,000  Level Fort Worth Center
07:33PM 33.9964 -102.2508 316° Northwest 420 483 30,000  Level Fort Worth Center
07:35PM 34.1517 -102.4336 316° Northwest 421 484 30,000  Level Albuquerque Center
07:36PM 34.2308 -102.5264 316° Northwest 419 482 30,000  Level Albuquerque Center
07:37PM 34.3314 -102.6439 316° Northwest 418 481 30,000  Level Albuquerque Center
07:38PM 34.4147 -102.7439 315° West 420 483 30,000  Level Albuquerque Center
07:39PM 34.4817 -102.8561 306° West 413 475 30,000  Level Albuquerque Center
07:40PM 34.5025 -102.9856 281° West 414 476 30,000  Level Albuquerque Center
07:41PM 34.5153 -103.1261 276° West 414 476 30,000  Level Albuquerque Center
07:42PM 34.5306 -103.2669 278° West 416 479 30,000  Level Albuquerque Center
07:43PM 34.5442 -103.4086 277° West 418 481 30,000  Level Albuquerque Center
07:44PM 34.5581 -103.5500 277° West 418 481 30,000  Level Albuquerque Center
07:45PM 34.5717 -103.6931 277° West 421 484 30,000  Level Albuquerque Center
07:46PM 34.5853 -103.8339 277° West 418 481 30,000  Level Albuquerque Center
07:47PM 34.5986 -103.9747 277° West 416 479 30,000  Level Albuquerque Center
07:48PM 34.6117 -104.1136 277° West 411 473 30,000  Level Albuquerque Center
07:49PM 34.6236 -104.2533 276° West 410 472 30,000  Level Albuquerque Center
07:50PM 34.6386 -104.4158 276° West 411 473 30,000  Level Albuquerque Center
07:51PM 34.6511 -104.5531 276° West 406 467 30,000  Level Albuquerque Center
07:52PM 34.6642 -104.6917 277° West 407 468 30,000  Level Albuquerque Center
07:53PM 34.6764 -104.8281 276° West 404 465 30,000 420 Level Albuquerque Center
07:54PM 34.6892 -104.9653 276° West 403 464 30,900 1,140 Climbing Albuquerque Center
07:55PM 34.7006 -105.1017 276° West 403 464 32,400 1,500 Climbing Albuquerque Center
07:56PM 34.7131 -105.2392 276° West 404 465 34,000 780 Climbing Albuquerque Center
07:57PM 34.7231 -105.3769 275° West 405 466 34,000 -300 Level Albuquerque Center
07:58PM 34.7350 -105.5119 276° West 400 460 33,400 -840 Descending Albuquerque Center
07:59PM 34.7464 -105.6447 276° West 394 453 32,400 -720 Descending Albuquerque Center
08:00PM 34.7561 -105.7769 275° West 390 449 32,000 -240 Descending Albuquerque Center
08:01PM 34.7669 -105.9081 276° West 387 445 32,000  Level Albuquerque Center
08:02PM 34.7758 -106.0394 275° West 387 445 32,000  Level Albuquerque Center
08:03PM 34.7869 -106.1708 276° West 387 445 32,000  Level Albuquerque Center
08:04PM 34.7975 -106.3169 275° West 389 448 32,000  Level Albuquerque Center
08:05PM 34.8058 -106.4489 274° West 389 448 32,000  Level Albuquerque Center
08:06PM 34.8147 -106.5789 275° West 387 445 32,000  Level Albuquerque Center
08:07PM 34.8231 -106.7108 274° West 387 445 32,000  Level Albuquerque Center
08:08PM 34.8331 -106.8447 275° West 390 449 32,000  Level Albuquerque Center
08:09PM 34.8428 -106.9792 275° West 394 453 32,000  Level Albuquerque Center
08:10PM 34.8556 -107.1228 276° West 387 445 32,000  Level Albuquerque Center
08:11PM 34.8608 -107.2458 273° West 396 456 32,000  Level Albuquerque Center
08:12PM 34.8700 -107.3781 275° West 396 456 32,000  Level Albuquerque Center
08:14PM 34.8778 -107.5094 274° West 391 450 32,000  Level Albuquerque Center
08:15PM 34.8858 -107.6406 274° West 388 447 32,000  Level Albuquerque Center
08:16PM 34.8933 -107.7697 274° West 385 443 32,000  Level Albuquerque Center
08:17PM 34.9019 -107.9197 274° West 385 443 32,000  Level Albuquerque Center
08:18PM 34.9083 -108.0439 274° West 383 441 32,000  Level Albuquerque Center
08:19PM 34.9181 -108.1903 275° West 386 444 32,000  Level Albuquerque Center
08:20PM 34.9244 -108.3169 274° West 389 448 32,000  Level Albuquerque Center
08:21PM 34.9314 -108.4422 274° West 388 447 32,000  Level Albuquerque Center
08:22PM 34.9400 -108.5894 274° West 390 449 32,000  Level Albuquerque Center
08:23PM 34.9472 -108.7153 274° West 389 448 32,000  Level Albuquerque Center
08:24PM 34.9542 -108.8631 273° West 389 448 32,000  Level Albuquerque Center
08:25PM 34.9606 -108.9914 274° West 393 452 32,000  Level Albuquerque Center
08:26PM 34.9675 -109.1186 274° West 392 451 32,000  Level Albuquerque Center
08:27PM 34.9619 -109.2703 267° West 399 459 32,000  Level Albuquerque Center
08:28PM 34.9525 -109.4056 265° West 410 472 32,000  Level Albuquerque Center
08:29PM 34.9403 -109.5567 264° West 404 465 32,000  Level Albuquerque Center
08:30PM 34.9322 -109.6875 266° West 403 464 32,000  Level Albuquerque Center
08:31PM 34.9233 -109.8214 265° West 408 470 32,000  Level Albuquerque Center
08:32PM 34.9125 -109.9767 265° West 411 473 32,000  Level Albuquerque Center
08:33PM 34.9025 -110.1075 265° West 409 471 32,000  Level Albuquerque Center
08:34PM 34.8944 -110.2439 266° West 416 479 32,000  Level Albuquerque Center
08:35PM 34.8797 -110.3981 263° West 413 475 32,000  Level Albuquerque Center
08:36PM 34.8619 -110.5286 261° West 411 473 32,000  Level Albuquerque Center
08:37PM 34.8428 -110.6794 261° West 406 467 32,000  Level Albuquerque Center
08:38PM 34.8239 -110.8133 260° West 406 467 32,000  Level Albuquerque Center
08:39PM 34.8067 -110.9481 261° West 407 468 32,000  Level Albuquerque Center
08:40PM 34.7894 -111.0850 261° West 409 471 32,000  Level Albuquerque Center
08:41PM 34.7739 -111.2239 262° West 413 475 32,000  Level Albuquerque Center
08:42PM 34.7564 -111.3608 261° West 414 476 32,000  Level Albuquerque Center
08:43PM 34.7386 -111.4981 261° West 413 475 32,000  Level Albuquerque Center
08:44PM 34.7203 -111.6356 261° West 414 476 32,000  Level Albuquerque Center
08:45PM 34.6989 -111.8000 261° West 414 476 32,000  Level Albuquerque Center
08:46PM 34.6808 -111.9383 261° West 416 479 32,000  Level Albuquerque Center
08:47PM 34.6614 -112.0767 260° West 417 480 32,000  Level Albuquerque Center
08:48PM 34.6439 -112.2156 261° West 419 482 32,000  Level Albuquerque Center
08:49PM 34.6244 -112.3583 261° West 418 481 32,000  Level Albuquerque Center
08:50PM 34.6058 -112.4981 261° West 419 482 32,000  Level Albuquerque Center
08:51PM 34.5858 -112.6381 260° West 420 483 32,000  Level Albuquerque Center
08:52PM 34.5669 -112.7786 261° West 422 486 32,000  Level Albuquerque Center
08:53PM 34.5467 -112.9189 260° West 422 486 32,000  Level Albuquerque Center
08:54PM 34.5267 -113.0597 260° West 424 488 32,000  Level Albuquerque Center
08:55PM 34.5050 -113.2006 259° West 425 489 32,000  Level Albuquerque Center
08:56PM 34.4806 -113.3689 260° West 425 489 32,000  Level Albuquerque Center
08:57PM 34.4592 -113.5111 260° West 427 491 32,000  Level Albuquerque Center
08:58PM 34.4369 -113.6622 260° West 426 490 32,000  Level Albuquerque Center
09:00PM 34.4164 -113.8039 260° West 426 490 32,000  Level Albuquerque Center
09:01PM 34.3958 -113.9461 260° West 428 493 32,000  Level Albuquerque Center
09:02PM 34.3742 -114.0861 259° West 425 489 32,000  Level Albuquerque Center
09:03PM 34.3519 -114.2283 259° West 427 491 32,000  Level Albuquerque Center
09:04PM 34.3311 -114.3708 260° West 428 493 32,000  Level Albuquerque Center
09:05PM 34.3103 -114.5081 260° West 428 493 32,000 660 Level Los Angeles Center
09:06PM 34.2881 -114.6486 259° West 426 490 33,400 960 Climbing Los Angeles Center
09:07PM 34.2664 -114.7878 259° West 422 486 34,000 240 Climbing Los Angeles Center
09:08PM 34.2456 -114.9253 260° West 419 482 34,000  Level Los Angeles Center
09:09PM 34.2250 -115.0639 260° West 419 482 34,000  Level Los Angeles Center
09:10PM 34.2028 -115.2033 259° West 423 487 34,000  Level Los Angeles Center
09:11PM 34.1778 -115.3708 260° West 424 488 34,000  Level Los Angeles Center
09:12PM 34.1544 -115.5125 259° West 428 493 34,000 -120 Level Los Angeles Center
09:13PM 34.1308 -115.6519 258° West 427 491 33,800 -720 Descending Los Angeles Center
09:14PM 34.1097 -115.7953 260° West 432 497 32,600 -1,260 Descending Los Angeles Center
09:15PM 34.0892 -115.9358 260° West 431 496 31,300 -1,260 Descending Los Angeles Center
09:16PM 34.0656 -116.0783 259° West 432 497 30,100 -1,260 Descending Los Angeles Center
09:17PM 34.0442 -116.2258 260° West 437 503 28,800 -1,560 Descending Los Angeles Center
09:18PM 34.0178 -116.4042 260° West 448 516 27,000 -1,500 Descending Los Angeles Center
09:19PM 34.0003 -116.5519 262° West 448 516 25,800 -1,740 Descending Los Angeles Center
09:20PM 33.9892 -116.6956 265° West 437 503 23,500 -2,220 Descending Los Angeles Center
09:21PM 33.9769 -116.8319 264° West 419 482 21,300 -2,040 Descending Los Angeles Center
09:21PM 33.9667 -116.9000 260° West 350 403 20,300 -1,800 Descending Southern California TRACON
09:22PM 33.9667 -117.0167 270° West 331 381 18,600 -1,680 Descending Southern California TRACON
09:23PM 33.9500 -117.1333 260° West 334 384 17,000 -1,320 Descending Southern California TRACON
09:24PM 33.9500 -117.2333 270° West 330 380 16,000 -1,020 Descending Southern California TRACON
09:25PM 33.9333 -117.3500 260° West 325 374 15,000 -840 Descending Southern California TRACON
09:26PM 33.9500 -117.4333 284° West 292 336 14,400 -780 Descending Southern California TRACON
09:27PM 33.9833 -117.5333 292° West 284 327 13,500 -960 Descending Southern California TRACON
09:28PM 34.0167 -117.6167 296° West 365 420 12,500 -1,380 Descending Southern California TRACON
09:29PM 34.0000 -117.7167 259° West 284 327 10,800 -1,620 Descending Southern California TRACON
09:30PM 34.0000 -117.8167 270° West 293 337 9,300 -1,500 Descending Southern California TRACON
09:31PM 33.9833 -117.9167 259° West 292 336 7,900 -1,440 Descending Southern California TRACON
09:32PM 33.9667 -118.0167 259° West 283 326 6,500 -1,560 Descending Southern California TRACON
09:33PM 33.9667 -118.1000 270° West 266 306 4,800 -1,620 Descending Southern California TRACON
09:34PM 33.9597 -118.1625 262° West 269 310 3,700 -1,320 Descending Los Angeles Center
09:35PM 33.9528 -118.2367 264° West 246 283 2,500 -1,200 Descending Los Angeles Center